Barron, Wisconsin
Current Conditions -  °F | °C
As of 1:55 AM on Thursday 23 Oct 2014 (Local Time) from KRPD Reporting Station
Scattered Clouds Scattered Clouds  
Wind Chill: 43°   Ceiling: Unl
Heat Index: 48°   Visibility: 10mi
Dew Point: 41°   Wind: 10mph
Humidity: 78%   Direction: 120°ESE
Pressure: 30.07"   Gusts: NA
Location:  45.4°N, 91.85°W
Report Text: KRPD 230655Z AUTO 12009KT 10SM SCT110 09/05 A3007 RMK AO2 T00880052
Loading
Personal Weather Stations






























Interactive Weather Map
Tropical Storm Tracking
New forecast layout! Learn more

10-Day Weather Forecast

Advertisements
Track Severe Weather on mobile